createdAt,value
2019-05-12T00:00:14.051Z,6.91
2019-05-12T00:05:21.627Z,5.76
2019-05-12T00:10:29.265Z,6.49
2019-05-12T00:15:38.459Z,8.41
2019-05-12T00:20:44.054Z,7.03
2019-05-12T00:25:51.636Z,5.81
2019-05-12T00:30:59.286Z,6.64
2019-05-12T00:36:08.046Z,6.15
2019-05-12T00:41:14.032Z,6.34
2019-05-12T00:46:21.640Z,7.76
2019-05-12T00:51:29.297Z,6.75
2019-05-12T00:56:38.951Z,8.01
2019-05-12T01:01:44.004Z,7.17
2019-05-12T01:06:51.908Z,8.43
2019-05-12T01:11:58.946Z,7.03
2019-05-12T01:17:08.283Z,6.11
2019-05-12T01:22:13.548Z,8.08
2019-05-12T01:27:21.153Z,9.22
2019-05-12T01:32:28.849Z,7.97
2019-05-12T01:37:38.325Z,7.69
2019-05-12T01:42:43.569Z,6.59
2019-05-12T01:47:51.194Z,8.00
2019-05-12T01:52:59.157Z,6.47
2019-05-12T01:58:08.080Z,5.95
2019-05-12T02:03:13.158Z,7.51
2019-05-12T02:08:20.763Z,6.93
2019-05-12T02:13:28.406Z,7.35
2019-05-12T02:18:38.102Z,6.49
2019-05-12T02:23:43.206Z,7.95
2019-05-12T02:28:50.794Z,7.61
2019-05-12T02:33:58.468Z,7.15
2019-05-12T02:39:06.066Z,9.45
2019-05-12T02:44:14.890Z,8.82
2019-05-12T02:49:20.858Z,7.82
2019-05-12T02:54:47.094Z,8.15
2019-05-12T02:59:35.532Z,6.94
2019-05-12T03:04:44.199Z,7.48
2019-05-12T03:09:50.310Z,8.68
2019-05-12T03:14:57.951Z,6.57
2019-05-12T03:20:05.578Z,9.75
2019-05-12T03:25:24.072Z,7.51
2019-05-12T03:30:20.332Z,7.16
2019-05-12T03:35:33.342Z,7.36
2019-05-12T03:40:38.082Z,6.65
2019-05-12T03:45:45.436Z,8.01
2019-05-12T03:50:49.369Z,7.25
2019-05-12T03:55:57.043Z,7.06
2019-05-12T04:01:04.928Z,8.20
2019-05-12T04:06:15.131Z,7.88
2019-05-12T04:11:19.382Z,7.52
2019-05-12T04:16:27.066Z,5.97
2019-05-12T04:21:35.439Z,8.22
2019-05-12T04:26:44.653Z,8.30
2019-05-12T04:31:49.038Z,9.14
2019-05-12T04:36:56.681Z,7.55
2019-05-12T04:42:05.274Z,7.13
2019-05-12T04:47:14.361Z,6.68
2019-05-12T04:52:18.587Z,7.92
2019-05-12T04:57:26.257Z,7.15
2019-05-12T05:02:36.378Z,5.85
2019-05-12T05:07:41.046Z,6.82
2019-05-12T05:12:48.675Z,7.46
2019-05-12T05:17:56.297Z,7.15
2019-05-12T05:23:04.184Z,7.60
2019-05-12T05:28:11.621Z,7.81
2019-05-12T05:33:20.018Z,6.19
2019-05-12T05:38:26.384Z,6.02
2019-05-12T05:43:33.976Z,6.09
2019-05-12T05:48:43.841Z,6.58
2019-05-12T05:53:50.190Z,6.74
2019-05-12T05:58:55.983Z,6.46
2019-05-12T06:04:07.683Z,6.09
2019-05-12T06:09:10.772Z,8.43
2019-05-12T06:14:18.369Z,6.84
2019-05-12T06:19:26.320Z,9.23
2019-05-12T06:24:33.613Z,7.50
2019-05-12T06:29:43.626Z,8.00
2019-05-12T06:34:51.003Z,7.55
2019-05-12T06:40:00.256Z,6.94
2019-05-12T06:45:03.743Z,6.78
2019-05-12T06:50:10.053Z,7.42
2019-05-12T06:55:17.639Z,6.13
2019-05-12T07:00:30.852Z,6.48
2019-05-12T07:05:33.807Z,7.94
2019-05-12T07:10:43.538Z,6.42
2019-05-12T07:15:46.778Z,6.62
2019-05-12T07:20:54.423Z,7.18
2019-05-12T07:26:04.133Z,6.19
2019-05-12T07:31:09.312Z,6.91
2019-05-12T07:36:16.901Z,7.06
2019-05-12T07:41:24.574Z,5.32
2019-05-12T07:46:34.080Z,5.69
2019-05-12T07:51:40.609Z,5.85
2019-05-12T07:56:46.558Z,5.41
2019-05-12T08:01:54.979Z,6.59
2019-05-12T08:07:01.360Z,5.52
2019-05-12T08:12:09.578Z,4.78
2019-05-12T08:17:19.425Z,4.94
2019-05-12T08:22:25.134Z,5.84
2019-05-12T08:27:30.706Z,6.23
2019-05-12T08:32:38.306Z,4.60
2019-05-12T08:37:45.890Z,6.05
2019-05-12T08:42:54.012Z,5.04
2019-05-12T08:48:00.714Z,6.35
2019-05-12T08:53:13.993Z,6.90
2019-05-12T08:58:30.428Z,6.21
2019-05-12T09:03:27.157Z,6.01
2019-05-12T09:08:29.796Z,5.43
2019-05-12T09:13:37.538Z,5.38
2019-05-12T09:18:45.107Z,5.74
2019-05-12T09:23:55.597Z,4.62
2019-05-12T09:29:00.134Z,4.51
2019-05-12T09:34:11.543Z,4.88
2019-05-12T09:39:14.946Z,4.67
2019-05-12T09:44:26.515Z,5.54
2019-05-12T09:49:33.203Z,6.34
2019-05-12T09:54:40.806Z,7.69
2019-05-12T09:59:45.893Z,5.88
2019-05-12T10:04:56.504Z,6.03
2019-05-12T10:09:59.210Z,5.48
2019-05-12T10:15:05.638Z,5.84
2019-05-12T10:20:13.651Z,5.88
2019-05-12T10:25:23.206Z,6.70
2019-05-12T10:30:27.535Z,5.01
2019-05-12T10:35:35.478Z,5.05
2019-05-12T10:40:44.479Z,4.06
2019-05-12T10:45:49.976Z,5.76
2019-05-12T10:50:57.581Z,4.54
2019-05-12T10:56:05.222Z,4.21
2019-05-12T11:01:13.405Z,4.86
2019-05-12T11:06:20.043Z,5.94
2019-05-12T11:11:32.866Z,4.24
2019-05-12T11:16:35.122Z,6.07
2019-05-12T11:21:44.159Z,5.01
2019-05-12T11:26:49.072Z,5.95
2019-05-12T11:31:56.655Z,5.65
2019-05-12T11:37:04.417Z,5.66
2019-05-12T11:42:13.673Z,4.52
2019-05-12T11:47:24.081Z,4.49
2019-05-12T11:52:26.323Z,5.37
2019-05-12T11:57:34.201Z,4.39
2019-05-12T12:02:43.632Z,3.67
2019-05-12T12:07:51.576Z,4.40
2019-05-12T12:12:55.838Z,4.82
2019-05-12T12:18:12.730Z,5.54
2019-05-12T12:23:11.274Z,5.13
2019-05-12T12:28:17.869Z,5.86
2019-05-12T12:33:25.461Z,4.59
2019-05-12T12:38:33.527Z,3.83
2019-05-12T12:43:40.241Z,3.41
2019-05-12T12:48:47.961Z,4.46
2019-05-12T12:53:55.552Z,3.41
2019-05-12T12:59:10.331Z,3.39
2019-05-12T13:04:10.300Z,4.32
2019-05-12T13:09:24.310Z,3.22
2019-05-12T13:14:28.526Z,4.44
2019-05-12T13:19:33.274Z,3.74
2019-05-12T13:24:39.419Z,4.08
2019-05-12T13:29:47.038Z,3.01
2019-05-12T13:34:54.655Z,4.00
2019-05-12T13:40:02.324Z,4.36
2019-05-12T13:45:13.169Z,3.67
2019-05-12T13:50:21.777Z,3.63
2019-05-12T13:55:24.239Z,4.19
2019-05-12T14:00:33.576Z,4.55
2019-05-12T14:05:41.213Z,5.65
2019-05-12T14:10:53.830Z,4.10
2019-05-12T14:15:53.797Z,4.23
2019-05-12T14:21:00.616Z,4.70
2019-05-12T14:26:09.371Z,3.47
2019-05-12T14:31:26.902Z,3.23
2019-05-12T14:36:26.677Z,4.29
2019-05-12T14:41:29.801Z,4.50
2019-05-12T14:46:40.168Z,2.77
2019-05-12T14:51:44.650Z,3.40
2019-05-12T14:56:55.455Z,3.69
2019-05-12T15:01:59.968Z,4.42
2019-05-12T15:07:10.079Z,3.64
2019-05-12T15:12:14.133Z,3.94
2019-05-12T15:17:23.038Z,3.47
2019-05-12T15:22:28.147Z,4.22
2019-05-12T15:27:44.247Z,5.21
2019-05-12T15:32:42.953Z,3.84
2019-05-12T15:37:52.878Z,3.62
2019-05-12T15:43:00.531Z,4.45
2019-05-12T15:48:04.860Z,3.77
2019-05-12T15:53:13.828Z,6.13
2019-05-12T15:58:19.642Z,4.32
2019-05-12T16:03:27.286Z,3.53
2019-05-12T16:08:34.875Z,4.31
2019-05-12T16:13:44.920Z,3.45
2019-05-12T16:18:50.617Z,3.21
2019-05-12T16:23:56.881Z,3.69
2019-05-12T16:29:07.160Z,5.05
2019-05-12T16:34:11.121Z,4.00
2019-05-12T16:39:18.735Z,4.88
2019-05-12T16:44:26.464Z,4.54
2019-05-12T16:49:34.776Z,4.56
2019-05-12T16:54:41.169Z,3.99
2019-05-12T16:59:53.416Z,5.47
2019-05-12T17:04:55.907Z,3.86
2019-05-12T17:15:10.650Z,4.09
2019-05-12T17:20:18.231Z,5.27
2019-05-12T17:25:25.933Z,3.97
2019-05-12T17:30:34.374Z,5.16
2019-05-12T17:35:40.646Z,5.66
2019-05-12T17:40:50.310Z,5.05
2019-05-12T17:45:59.981Z,4.06
2019-05-12T17:51:03.311Z,4.42
2019-05-12T17:56:09.797Z,4.50
2019-05-12T18:01:23.019Z,3.91
2019-05-12T18:06:29.146Z,4.96
2019-05-12T18:11:33.897Z,5.56
2019-05-12T18:16:38.933Z,6.22
2019-05-12T18:21:46.536Z,5.72
2019-05-12T18:26:59.050Z,4.86
2019-05-12T18:32:01.341Z,5.77
2019-05-12T18:37:09.012Z,3.38
2019-05-12T18:42:16.573Z,4.90
2019-05-12T18:47:31.788Z,4.91
2019-05-12T18:52:36.465Z,5.46
2019-05-12T18:57:39.327Z,6.10
2019-05-12T19:02:45.721Z,5.28
2019-05-12T19:07:54.293Z,5.48
2019-05-12T19:13:01.943Z,3.10
2019-05-12T19:18:07.787Z,5.50
2019-05-12T19:23:15.426Z,5.66
2019-05-12T19:28:23.831Z,5.14
2019-05-12T19:33:30.320Z,7.40
2019-05-12T19:38:37.983Z,7.67
2019-05-12T19:43:49.409Z,7.43
2019-05-12T19:48:54.014Z,5.56
2019-05-12T19:53:59.969Z,9.78
2019-05-12T19:59:07.634Z,9.51
2019-05-12T20:04:29.607Z,5.65
2019-05-12T20:09:24.293Z,9.09
2019-05-12T20:14:29.621Z,7.05
2019-05-12T20:19:37.262Z,7.01
2019-05-12T20:24:44.897Z,6.56
2019-05-12T20:29:53.984Z,8.29
2019-05-12T20:34:59.715Z,7.12
2019-05-12T20:40:07.393Z,9.18
2019-05-12T20:45:14.993Z,7.86
2019-05-12T20:50:25.957Z,10.11
2019-05-12T20:55:30.160Z,6.73
2019-05-12T21:00:38.736Z,6.15
2019-05-12T21:05:44.103Z,6.66
2019-05-12T21:10:53.976Z,6.33
2019-05-12T21:15:58.906Z,7.30
2019-05-12T21:21:06.775Z,8.91
2019-05-12T21:26:14.301Z,7.05
2019-05-12T21:31:28.950Z,7.80
2019-05-12T21:36:29.544Z,6.53
2019-05-12T21:41:40.769Z,8.01
2019-05-12T21:46:46.958Z,7.11
2019-05-12T21:51:55.533Z,7.43
2019-05-12T21:56:57.762Z,7.29
2019-05-12T22:02:05.408Z,5.43
2019-05-12T22:07:15.049Z,6.75
2019-05-12T22:12:23.265Z,7.67
2019-05-12T22:17:27.332Z,6.45
2019-05-12T22:22:34.981Z,6.55
2019-05-12T22:27:42.604Z,9.05
2019-05-12T22:32:50.295Z,7.79
2019-05-12T22:37:57.913Z,7.95
2019-05-12T22:43:07.100Z,7.22
2019-05-12T22:48:12.729Z,7.78
2019-05-12T22:53:25.887Z,7.60
2019-05-12T22:58:27.545Z,7.86
2019-05-12T23:03:35.178Z,8.68
2019-05-12T23:08:47.158Z,7.76
2019-05-12T23:13:49.954Z,7.26
2019-05-12T23:19:01.557Z,7.87
2019-05-12T23:24:04.727Z,10.09
2019-05-12T23:29:14.456Z,7.20
2019-05-12T23:34:19.524Z,9.86
2019-05-12T23:39:27.129Z,5.12
2019-05-12T23:44:34.825Z,6.85
2019-05-12T23:49:44.433Z,7.22
2019-05-12T23:54:49.625Z,6.70
2019-05-12T23:59:57.234Z,8.88
